sensor_id;sensor_type;location;lat;lon;timestamp;P1;durP1;ratioP1;P2;durP2;ratioP2
64353;SDS011;50681;53.334;-6.536;2023-04-25T00:05:25;13.07;;;5.47;;
64353;SDS011;50681;53.334;-6.536;2023-04-25T00:07:57;12.30;;;5.28;;
64353;SDS011;50681;53.334;-6.536;2023-04-25T00:10:30;8.77;;;4.75;;
64353;SDS011;50681;53.334;-6.536;2023-04-25T00:12:59;13.85;;;5.35;;
64353;SDS011;50681;53.334;-6.536;2023-04-25T00:15:27;18.35;;;5.55;;
64353;SDS011;50681;53.334;-6.536;2023-04-25T00:17:56;14.50;;;5.13;;
64353;SDS011;50681;53.334;-6.536;2023-04-25T00:20:22;13.95;;;5.88;;
64353;SDS011;50681;53.334;-6.536;2023-04-25T00:22:49;10.05;;;5.50;;
64353;SDS011;50681;53.334;-6.536;2023-04-25T00:25:14;20.02;;;5.25;;
64353;SDS011;50681;53.334;-6.536;2023-04-25T00:27:42;14.25;;;5.32;;
64353;SDS011;50681;53.334;-6.536;2023-04-25T00:30:07;11.15;;;4.68;;
64353;SDS011;50681;53.334;-6.536;2023-04-25T00:32:33;18.73;;;5.05;;
64353;SDS011;50681;53.334;-6.536;2023-04-25T00:34:59;17.13;;;4.27;;
64353;SDS011;50681;53.334;-6.536;2023-04-25T00:37:24;10.27;;;3.93;;
64353;SDS011;50681;53.334;-6.536;2023-04-25T00:39:50;10.98;;;3.75;;
64353;SDS011;50681;53.334;-6.536;2023-04-25T00:42:18;7.97;;;3.40;;
64353;SDS011;50681;53.334;-6.536;2023-04-25T00:44:44;8.70;;;2.80;;
64353;SDS011;50681;53.334;-6.536;2023-04-25T00:47:10;4.47;;;1.70;;
64353;SDS011;50681;53.334;-6.536;2023-04-25T00:49:36;6.35;;;1.83;;
64353;SDS011;50681;53.334;-6.536;2023-04-25T00:52:01;5.47;;;1.47;;
64353;SDS011;50681;53.334;-6.536;2023-04-25T00:54:27;3.80;;;1.40;;
64353;SDS011;50681;53.334;-6.536;2023-04-25T00:56:52;2.23;;;1.37;;
64353;SDS011;50681;53.334;-6.536;2023-04-25T00:59:19;5.60;;;1.37;;
64353;SDS011;50681;53.334;-6.536;2023-04-25T01:01:46;4.13;;;1.30;;
64353;SDS011;50681;53.334;-6.536;2023-04-25T01:04:16;4.53;;;1.67;;
64353;SDS011;50681;53.334;-6.536;2023-04-25T01:06:42;2.28;;;0.98;;
64353;SDS011;50681;53.334;-6.536;2023-04-25T01:09:10;3.17;;;1.30;;
64353;SDS011;50681;53.334;-6.536;2023-04-25T01:11:37;7.13;;;1.40;;
64353;SDS011;50681;53.334;-6.536;2023-04-25T01:14:05;3.87;;;1.20;;
64353;SDS011;50681;53.334;-6.536;2023-04-25T01:16:30;3.53;;;1.27;;
64353;SDS011;50681;53.334;-6.536;2023-04-25T01:18:56;2.53;;;1.00;;
64353;SDS011;50681;53.334;-6.536;2023-04-25T01:21:22;4.78;;;2.03;;
64353;SDS011;50681;53.334;-6.536;2023-04-25T01:23:48;4.93;;;1.50;;
64353;SDS011;50681;53.334;-6.536;2023-04-25T01:26:13;9.17;;;1.60;;
64353;SDS011;50681;53.334;-6.536;2023-04-25T01:28:39;6.05;;;1.80;;
64353;SDS011;50681;53.334;-6.536;2023-04-25T01:31:08;5.97;;;1.55;;
64353;SDS011;50681;53.334;-6.536;2023-04-25T01:33:34;4.57;;;1.50;;
64353;SDS011;50681;53.334;-6.536;2023-04-25T01:35:59;6.50;;;1.37;;
64353;SDS011;50681;53.334;-6.536;2023-04-25T01:38:25;5.67;;;1.33;;
64353;SDS011;50681;53.334;-6.536;2023-04-25T01:40:51;7.10;;;1.60;;
64353;SDS011;50681;53.334;-6.536;2023-04-25T01:43:17;9.15;;;1.70;;
64353;SDS011;50681;53.334;-6.536;2023-04-25T01:45:42;4.47;;;1.60;;
64353;SDS011;50681;53.334;-6.536;2023-04-25T01:48:08;7.37;;;1.90;;
64353;SDS011;50681;53.334;-6.536;2023-04-25T01:50:35;9.50;;;1.70;;
64353;SDS011;50681;53.334;-6.536;2023-04-25T01:53:00;4.20;;;1.70;;
64353;SDS011;50681;53.334;-6.536;2023-04-25T01:55:27;7.78;;;1.95;;
64353;SDS011;50681;53.334;-6.536;2023-04-25T01:57:53;8.20;;;2.15;;
64353;SDS011;50681;53.334;-6.536;2023-04-25T02:00:18;8.10;;;2.75;;
64353;SDS011;50681;53.334;-6.536;2023-04-25T02:02:44;9.93;;;3.37;;
64353;SDS011;50681;53.334;-6.536;2023-04-25T02:05:09;10.60;;;3.83;;
64353;SDS011;50681;53.334;-6.536;2023-04-25T02:07:36;9.52;;;2.45;;
64353;SDS011;50681;53.334;-6.536;2023-04-25T02:10:02;5.75;;;2.13;;
64353;SDS011;50681;53.334;-6.536;2023-04-25T02:12:28;7.35;;;2.47;;
64353;SDS011;50681;53.334;-6.536;2023-04-25T02:14:54;4.78;;;2.33;;
64353;SDS011;50681;53.334;-6.536;2023-04-25T02:17:19;8.33;;;3.30;;
64353;SDS011;50681;53.334;-6.536;2023-04-25T02:19:47;8.27;;;3.05;;
64353;SDS011;50681;53.334;-6.536;2023-04-25T02:22:12;8.43;;;4.20;;
64353;SDS011;50681;53.334;-6.536;2023-04-25T02:24:38;9.13;;;3.20;;
64353;SDS011;50681;53.334;-6.536;2023-04-25T02:27:04;4.88;;;2.45;;
64353;SDS011;50681;53.334;-6.536;2023-04-25T02:29:30;7.30;;;3.20;;
64353;SDS011;50681;53.334;-6.536;2023-04-25T02:31:59;11.32;;;3.30;;
64353;SDS011;50681;53.334;-6.536;2023-04-25T02:34:25;8.23;;;3.60;;
64353;SDS011;50681;53.334;-6.536;2023-04-25T02:36:50;11.93;;;3.77;;
64353;SDS011;50681;53.334;-6.536;2023-04-25T02:39:16;13.07;;;4.33;;
64353;SDS011;50681;53.334;-6.536;2023-04-25T02:41:42;10.52;;;3.78;;
64353;SDS011;50681;53.334;-6.536;2023-04-25T02:44:07;9.63;;;4.10;;
64353;SDS011;50681;53.334;-6.536;2023-04-25T02:46:33;11.13;;;3.93;;
64353;SDS011;50681;53.334;-6.536;2023-04-25T02:48:58;23.00;;;6.43;;
64353;SDS011;50681;53.334;-6.536;2023-04-25T02:51:24;12.93;;;5.87;;
64353;SDS011;50681;53.334;-6.536;2023-04-25T02:53:49;10.65;;;5.55;;
64353;SDS011;50681;53.334;-6.536;2023-04-25T02:56:15;10.37;;;5.33;;
64353;SDS011;50681;53.334;-6.536;2023-04-25T02:58:40;11.00;;;4.30;;
64353;SDS011;50681;53.334;-6.536;2023-04-25T03:01:06;12.43;;;4.43;;
64353;SDS011;50681;53.334;-6.536;2023-04-25T03:03:31;9.90;;;4.30;;
64353;SDS011;50681;53.334;-6.536;2023-04-25T03:05:56;10.27;;;5.03;;
64353;SDS011;50681;53.334;-6.536;2023-04-25T03:08:22;9.57;;;4.53;;
64353;SDS011;50681;53.334;-6.536;2023-04-25T03:10:48;14.10;;;4.33;;
64353;SDS011;50681;53.334;-6.536;2023-04-25T03:13:15;9.90;;;4.63;;
64353;SDS011;50681;53.334;-6.536;2023-04-25T03:15:40;12.03;;;4.97;;
64353;SDS011;50681;53.334;-6.536;2023-04-25T03:18:06;8.30;;;4.23;;
64353;SDS011;50681;53.334;-6.536;2023-04-25T03:20:31;16.43;;;5.50;;
64353;SDS011;50681;53.334;-6.536;2023-04-25T03:22:56;17.50;;;6.37;;
64353;SDS011;50681;53.334;-6.536;2023-04-25T03:25:22;14.77;;;5.70;;
64353;SDS011;50681;53.334;-6.536;2023-04-25T03:27:47;11.03;;;6.37;;
64353;SDS011;50681;53.334;-6.536;2023-04-25T03:30:13;11.87;;;6.70;;
64353;SDS011;50681;53.334;-6.536;2023-04-25T03:32:39;16.90;;;7.33;;
64353;SDS011;50681;53.334;-6.536;2023-04-25T03:35:05;15.77;;;5.93;;
64353;SDS011;50681;53.334;-6.536;2023-04-25T03:37:30;9.97;;;5.13;;
64353;SDS011;50681;53.334;-6.536;2023-04-25T03:39:56;13.87;;;5.57;;
64353;SDS011;50681;53.334;-6.536;2023-04-25T03:42:23;14.73;;;6.17;;
64353;SDS011;50681;53.334;-6.536;2023-04-25T03:47:32;12.87;;;5.10;;
64353;SDS011;50681;53.334;-6.536;2023-04-25T03:49:57;9.53;;;4.33;;
64353;SDS011;50681;53.334;-6.536;2023-04-25T03:52:22;15.23;;;4.43;;
64353;SDS011;50681;53.334;-6.536;2023-04-25T03:54:48;7.97;;;4.50;;
64353;SDS011;50681;53.334;-6.536;2023-04-25T03:57:14;9.48;;;5.15;;
64353;SDS011;50681;53.334;-6.536;2023-04-25T03:59:40;10.15;;;4.97;;
64353;SDS011;50681;53.334;-6.536;2023-04-25T04:02:06;10.53;;;5.73;;
64353;SDS011;50681;53.334;-6.536;2023-04-25T04:04:31;10.07;;;5.27;;
64353;SDS011;50681;53.334;-6.536;2023-04-25T04:06:57;10.50;;;4.83;;
64353;SDS011;50681;53.334;-6.536;2023-04-25T04:09:22;8.77;;;4.87;;
64353;SDS011;50681;53.334;-6.536;2023-04-25T04:11:48;11.37;;;4.67;;
64353;SDS011;50681;53.334;-6.536;2023-04-25T04:14:13;9.30;;;4.87;;
64353;SDS011;50681;53.334;-6.536;2023-04-25T04:16:38;11.00;;;5.37;;
64353;SDS011;50681;53.334;-6.536;2023-04-25T04:19:04;10.23;;;5.33;;
64353;SDS011;50681;53.334;-6.536;2023-04-25T04:21:30;12.63;;;5.93;;
64353;SDS011;50681;53.334;-6.536;2023-04-25T04:23:56;12.70;;;5.55;;
64353;SDS011;50681;53.334;-6.536;2023-04-25T04:26:23;8.48;;;4.50;;
64353;SDS011;50681;53.334;-6.536;2023-04-25T04:31:22;10.60;;;4.77;;
64353;SDS011;50681;53.334;-6.536;2023-04-25T04:33:47;15.87;;;5.70;;
64353;SDS011;50681;53.334;-6.536;2023-04-25T04:36:13;10.67;;;5.40;;
64353;SDS011;50681;53.334;-6.536;2023-04-25T04:38:39;7.83;;;4.90;;
64353;SDS011;50681;53.334;-6.536;2023-04-25T04:41:06;13.60;;;5.03;;
64353;SDS011;50681;53.334;-6.536;2023-04-25T04:43:31;15.03;;;5.57;;
64353;SDS011;50681;53.334;-6.536;2023-04-25T04:45:58;11.15;;;5.10;;
64353;SDS011;50681;53.334;-6.536;2023-04-25T04:48:25;11.90;;;4.93;;
64353;SDS011;50681;53.334;-6.536;2023-04-25T04:50:51;12.33;;;5.40;;
64353;SDS011;50681;53.334;-6.536;2023-04-25T04:53:16;13.43;;;5.23;;
64353;SDS011;50681;53.334;-6.536;2023-04-25T04:55:42;12.27;;;4.53;;
64353;SDS011;50681;53.334;-6.536;2023-04-25T04:58:08;11.13;;;5.77;;
64353;SDS011;50681;53.334;-6.536;2023-04-25T05:00:33;12.43;;;5.40;;
64353;SDS011;50681;53.334;-6.536;2023-04-25T05:02:59;13.60;;;5.47;;
64353;SDS011;50681;53.334;-6.536;2023-04-25T05:05:24;7.90;;;5.23;;
64353;SDS011;50681;53.334;-6.536;2023-04-25T05:07:50;9.55;;;4.82;;
64353;SDS011;50681;53.334;-6.536;2023-04-25T05:10:16;12.43;;;5.13;;
64353;SDS011;50681;53.334;-6.536;2023-04-25T05:12:42;11.75;;;5.10;;
64353;SDS011;50681;53.334;-6.536;2023-04-25T05:15:08;16.27;;;5.60;;
64353;SDS011;50681;53.334;-6.536;2023-04-25T05:17:34;11.18;;;5.93;;
64353;SDS011;50681;53.334;-6.536;2023-04-25T05:19:59;8.97;;;4.90;;
64353;SDS011;50681;53.334;-6.536;2023-04-25T05:22:24;10.13;;;5.17;;
64353;SDS011;50681;53.334;-6.536;2023-04-25T05:24:50;10.30;;;5.17;;
64353;SDS011;50681;53.334;-6.536;2023-04-25T05:27:18;11.85;;;5.30;;
64353;SDS011;50681;53.334;-6.536;2023-04-25T05:29:43;10.30;;;5.77;;
64353;SDS011;50681;53.334;-6.536;2023-04-25T05:32:09;8.90;;;5.75;;
64353;SDS011;50681;53.334;-6.536;2023-04-25T05:34:35;9.33;;;5.83;;
64353;SDS011;50681;53.334;-6.536;2023-04-25T05:37:00;10.30;;;5.30;;
64353;SDS011;50681;53.334;-6.536;2023-04-25T05:39:26;15.10;;;5.50;;
64353;SDS011;50681;53.334;-6.536;2023-04-25T05:41:51;8.47;;;5.13;;
64353;SDS011;50681;53.334;-6.536;2023-04-25T05:44:17;14.43;;;6.00;;
64353;SDS011;50681;53.334;-6.536;2023-04-25T05:46:42;9.63;;;4.90;;
64353;SDS011;50681;53.334;-6.536;2023-04-25T05:49:08;15.53;;;5.03;;
64353;SDS011;50681;53.334;-6.536;2023-04-25T05:51:33;16.73;;;5.80;;
64353;SDS011;50681;53.334;-6.536;2023-04-25T05:53:59;14.37;;;6.17;;
64353;SDS011;50681;53.334;-6.536;2023-04-25T05:56:24;12.20;;;6.03;;
64353;SDS011;50681;53.334;-6.536;2023-04-25T05:58:50;10.38;;;5.72;;
64353;SDS011;50681;53.334;-6.536;2023-04-25T06:01:16;13.93;;;6.33;;
64353;SDS011;50681;53.334;-6.536;2023-04-25T06:03:41;11.67;;;6.37;;
64353;SDS011;50681;53.334;-6.536;2023-04-25T06:06:11;11.20;;;6.83;;
64353;SDS011;50681;53.334;-6.536;2023-04-25T06:08:37;15.73;;;6.53;;
64353;SDS011;50681;53.334;-6.536;2023-04-25T06:11:03;15.57;;;6.78;;
64353;SDS011;50681;53.334;-6.536;2023-04-25T06:13:29;18.63;;;7.30;;
64353;SDS011;50681;53.334;-6.536;2023-04-25T06:15:54;11.53;;;5.77;;
64353;SDS011;50681;53.334;-6.536;2023-04-25T06:18:20;10.93;;;6.57;;
64353;SDS011;50681;53.334;-6.536;2023-04-25T06:20:45;15.03;;;6.50;;
64353;SDS011;50681;53.334;-6.536;2023-04-25T06:23:10;21.40;;;7.30;;
64353;SDS011;50681;53.334;-6.536;2023-04-25T06:25:36;20.47;;;6.90;;
64353;SDS011;50681;53.334;-6.536;2023-04-25T06:28:01;13.47;;;7.20;;
64353;SDS011;50681;53.334;-6.536;2023-04-25T06:30:27;13.70;;;7.03;;
64353;SDS011;50681;53.334;-6.536;2023-04-25T06:32:52;19.57;;;6.43;;
64353;SDS011;50681;53.334;-6.536;2023-04-25T06:35:19;19.10;;;7.00;;
64353;SDS011;50681;53.334;-6.536;2023-04-25T06:37:45;14.07;;;6.70;;
64353;SDS011;50681;53.334;-6.536;2023-04-25T06:40:10;18.50;;;6.80;;
64353;SDS011;50681;53.334;-6.536;2023-04-25T06:42:36;10.80;;;6.83;;
64353;SDS011;50681;53.334;-6.536;2023-04-25T06:45:01;15.70;;;7.33;;
64353;SDS011;50681;53.334;-6.536;2023-04-25T06:47:27;12.93;;;7.47;;
64353;SDS011;50681;53.334;-6.536;2023-04-25T06:49:53;14.63;;;7.80;;
64353;SDS011;50681;53.334;-6.536;2023-04-25T06:52:18;16.17;;;8.00;;
64353;SDS011;50681;53.334;-6.536;2023-04-25T06:54:44;16.57;;;7.90;;
64353;SDS011;50681;53.334;-6.536;2023-04-25T06:57:11;10.93;;;7.22;;
64353;SDS011;50681;53.334;-6.536;2023-04-25T06:59:37;22.97;;;8.10;;
64353;SDS011;50681;53.334;-6.536;2023-04-25T07:02:02;16.33;;;8.07;;
64353;SDS011;50681;53.334;-6.536;2023-04-25T07:04:28;16.33;;;8.00;;
64353;SDS011;50681;53.334;-6.536;2023-04-25T07:06:54;15.83;;;7.67;;
64353;SDS011;50681;53.334;-6.536;2023-04-25T07:09:23;18.07;;;7.93;;
64353;SDS011;50681;53.334;-6.536;2023-04-25T07:11:48;13.13;;;7.17;;
64353;SDS011;50681;53.334;-6.536;2023-04-25T07:14:13;13.77;;;6.57;;
64353;SDS011;50681;53.334;-6.536;2023-04-25T07:16:40;16.10;;;6.95;;
64353;SDS011;50681;53.334;-6.536;2023-04-25T07:19:05;20.60;;;7.53;;
64353;SDS011;50681;53.334;-6.536;2023-04-25T07:21:31;11.83;;;6.63;;
64353;SDS011;50681;53.334;-6.536;2023-04-25T07:23:57;20.42;;;7.40;;
64353;SDS011;50681;53.334;-6.536;2023-04-25T07:26:23;19.43;;;7.20;;
64353;SDS011;50681;53.334;-6.536;2023-04-25T07:28:48;13.30;;;5.17;;
64353;SDS011;50681;53.334;-6.536;2023-04-25T07:31:16;19.50;;;4.80;;
64353;SDS011;50681;53.334;-6.536;2023-04-25T07:33:43;12.43;;;4.73;;
64353;SDS011;50681;53.334;-6.536;2023-04-25T07:36:12;16.77;;;5.20;;
64353;SDS011;50681;53.334;-6.536;2023-04-25T07:38:38;19.00;;;5.28;;
64353;SDS011;50681;53.334;-6.536;2023-04-25T07:41:04;17.63;;;5.85;;
64353;SDS011;50681;53.334;-6.536;2023-04-25T07:43:29;12.07;;;4.77;;
64353;SDS011;50681;53.334;-6.536;2023-04-25T07:45:56;18.30;;;4.60;;
64353;SDS011;50681;53.334;-6.536;2023-04-25T07:48:22;16.10;;;5.30;;
64353;SDS011;50681;53.334;-6.536;2023-04-25T07:50:47;25.65;;;5.15;;
64353;SDS011;50681;53.334;-6.536;2023-04-25T07:53:13;20.80;;;5.03;;
64353;SDS011;50681;53.334;-6.536;2023-04-25T07:55:38;9.70;;;3.97;;
64353;SDS011;50681;53.334;-6.536;2023-04-25T07:58:07;15.10;;;4.07;;
64353;SDS011;50681;53.334;-6.536;2023-04-25T08:00:33;15.37;;;4.20;;
64353;SDS011;50681;53.334;-6.536;2023-04-25T08:02:58;15.50;;;4.97;;
64353;SDS011;50681;53.334;-6.536;2023-04-25T08:05:24;15.33;;;5.40;;
64353;SDS011;50681;53.334;-6.536;2023-04-25T08:07:49;16.53;;;4.47;;
64353;SDS011;50681;53.334;-6.536;2023-04-25T08:10:15;14.25;;;4.70;;
64353;SDS011;50681;53.334;-6.536;2023-04-25T08:12:41;14.63;;;4.57;;
64353;SDS011;50681;53.334;-6.536;2023-04-25T08:15:06;21.33;;;4.80;;
64353;SDS011;50681;53.334;-6.536;2023-04-25T08:17:32;19.88;;;5.13;;
64353;SDS011;50681;53.334;-6.536;2023-04-25T08:19:57;11.67;;;4.30;;
64353;SDS011;50681;53.334;-6.536;2023-04-25T08:22:23;17.40;;;4.47;;
64353;SDS011;50681;53.334;-6.536;2023-04-25T08:24:48;19.13;;;4.90;;
64353;SDS011;50681;53.334;-6.536;2023-04-25T08:27:14;11.87;;;4.33;;
64353;SDS011;50681;53.334;-6.536;2023-04-25T08:29:39;18.00;;;5.88;;
64353;SDS011;50681;53.334;-6.536;2023-04-25T08:32:06;12.50;;;4.70;;
64353;SDS011;50681;53.334;-6.536;2023-04-25T08:34:31;8.67;;;4.03;;
64353;SDS011;50681;53.334;-6.536;2023-04-25T08:36:57;17.00;;;5.10;;
64353;SDS011;50681;53.334;-6.536;2023-04-25T08:39:22;12.67;;;4.63;;
64353;SDS011;50681;53.334;-6.536;2023-04-25T08:41:48;13.87;;;4.47;;
64353;SDS011;50681;53.334;-6.536;2023-04-25T08:44:13;10.60;;;3.80;;
64353;SDS011;50681;53.334;-6.536;2023-04-25T08:46:40;17.02;;;4.28;;
64353;SDS011;50681;53.334;-6.536;2023-04-25T08:49:06;13.13;;;3.67;;
64353;SDS011;50681;53.334;-6.536;2023-04-25T08:51:32;16.23;;;4.95;;
64353;SDS011;50681;53.334;-6.536;2023-04-25T08:54:01;19.17;;;4.82;;
64353;SDS011;50681;53.334;-6.536;2023-04-25T08:56:36;10.07;;;4.15;;
64353;SDS011;50681;53.334;-6.536;2023-04-25T08:59:03;11.68;;;3.35;;
64353;SDS011;50681;53.334;-6.536;2023-04-25T09:01:32;24.83;;;3.83;;
64353;SDS011;50681;53.334;-6.536;2023-04-25T09:06:25;10.55;;;2.60;;
64353;SDS011;50681;53.334;-6.536;2023-04-25T09:08:51;15.93;;;3.13;;
64353;SDS011;50681;53.334;-6.536;2023-04-25T09:11:16;11.40;;;2.97;;
64353;SDS011;50681;53.334;-6.536;2023-04-25T09:13:42;28.95;;;3.58;;
64353;SDS011;50681;53.334;-6.536;2023-04-25T09:16:08;10.02;;;2.88;;
64353;SDS011;50681;53.334;-6.536;2023-04-25T09:18:34;14.53;;;3.43;;
64353;SDS011;50681;53.334;-6.536;2023-04-25T09:21:05;12.43;;;3.05;;
64353;SDS011;50681;53.334;-6.536;2023-04-25T09:23:54;16.08;;;3.10;;
64353;SDS011;50681;53.334;-6.536;2023-04-25T09:26:19;9.53;;;2.80;;
64353;SDS011;50681;53.334;-6.536;2023-04-25T09:28:45;8.38;;;3.03;;
64353;SDS011;50681;53.334;-6.536;2023-04-25T09:31:20;9.00;;;3.10;;
64353;SDS011;50681;53.334;-6.536;2023-04-25T09:33:46;11.43;;;2.97;;
64353;SDS011;50681;53.334;-6.536;2023-04-25T09:36:12;12.57;;;3.23;;
64353;SDS011;50681;53.334;-6.536;2023-04-25T09:38:44;8.07;;;2.75;;
64353;SDS011;50681;53.334;-6.536;2023-04-25T09:41:11;15.35;;;3.20;;
64353;SDS011;50681;53.334;-6.536;2023-04-25T09:43:38;12.30;;;3.03;;
64353;SDS011;50681;53.334;-6.536;2023-04-25T09:46:08;7.32;;;2.42;;
64353;SDS011;50681;53.334;-6.536;2023-04-25T09:48:36;5.65;;;2.13;;
64353;SDS011;50681;53.334;-6.536;2023-04-25T09:51:11;5.33;;;2.20;;
64353;SDS011;50681;53.334;-6.536;2023-04-25T09:53:41;6.20;;;2.03;;
64353;SDS011;50681;53.334;-6.536;2023-04-25T09:56:09;5.53;;;2.03;;
64353;SDS011;50681;53.334;-6.536;2023-04-25T09:58:36;8.45;;;2.33;;
64353;SDS011;50681;53.334;-6.536;2023-04-25T10:01:04;6.70;;;2.00;;
64353;SDS011;50681;53.334;-6.536;2023-04-25T10:03:31;8.95;;;2.17;;
64353;SDS011;50681;53.334;-6.536;2023-04-25T10:06:01;7.20;;;1.73;;
64353;SDS011;50681;53.334;-6.536;2023-04-25T10:08:33;8.40;;;1.90;;
64353;SDS011;50681;53.334;-6.536;2023-04-25T10:11:02;8.98;;;2.33;;
64353;SDS011;50681;53.334;-6.536;2023-04-25T10:13:29;6.50;;;1.92;;
64353;SDS011;50681;53.334;-6.536;2023-04-25T10:15:59;12.75;;;1.77;;
64353;SDS011;50681;53.334;-6.536;2023-04-25T10:18:26;7.07;;;1.70;;
64353;SDS011;50681;53.334;-6.536;2023-04-25T10:20:54;8.27;;;1.70;;
64353;SDS011;50681;53.334;-6.536;2023-04-25T10:23:21;7.32;;;2.00;;
64353;SDS011;50681;53.334;-6.536;2023-04-25T10:25:47;5.63;;;1.90;;
64353;SDS011;50681;53.334;-6.536;2023-04-25T10:28:14;3.78;;;1.67;;
64353;SDS011;50681;53.334;-6.536;2023-04-25T10:30:56;10.93;;;2.30;;
64353;SDS011;50681;53.334;-6.536;2023-04-25T10:33:30;6.45;;;1.88;;
64353;SDS011;50681;53.334;-6.536;2023-04-25T10:35:58;7.35;;;1.73;;
64353;SDS011;50681;53.334;-6.536;2023-04-25T10:38:34;8.45;;;1.73;;
64353;SDS011;50681;53.334;-6.536;2023-04-25T10:41:08;7.70;;;2.05;;
64353;SDS011;50681;53.334;-6.536;2023-04-25T10:46:24;11.82;;;1.75;;
64353;SDS011;50681;53.334;-6.536;2023-04-25T10:48:54;6.85;;;2.28;;
64353;SDS011;50681;53.334;-6.536;2023-04-25T10:51:24;7.95;;;2.30;;
64353;SDS011;50681;53.334;-6.536;2023-04-25T10:56:20;14.23;;;2.38;;
64353;SDS011;50681;53.334;-6.536;2023-04-25T10:58:48;7.97;;;1.88;;
64353;SDS011;50681;53.334;-6.536;2023-04-25T11:01:15;6.40;;;2.17;;
64353;SDS011;50681;53.334;-6.536;2023-04-25T11:03:45;4.85;;;1.83;;
64353;SDS011;50681;53.334;-6.536;2023-04-25T11:06:19;6.70;;;1.77;;
64353;SDS011;50681;53.334;-6.536;2023-04-25T11:08:48;10.88;;;2.30;;
64353;SDS011;50681;53.334;-6.536;2023-04-25T11:11:16;4.70;;;1.50;;
64353;SDS011;50681;53.334;-6.536;2023-04-25T11:13:42;6.15;;;1.80;;
64353;SDS011;50681;53.334;-6.536;2023-04-25T11:16:07;11.60;;;1.80;;
64353;SDS011;50681;53.334;-6.536;2023-04-25T11:18:33;8.37;;;1.83;;
64353;SDS011;50681;53.334;-6.536;2023-04-25T11:20:59;6.00;;;1.90;;
64353;SDS011;50681;53.334;-6.536;2023-04-25T11:23:25;6.55;;;1.42;;
64353;SDS011;50681;53.334;-6.536;2023-04-25T11:25:52;5.50;;;1.70;;
64353;SDS011;50681;53.334;-6.536;2023-04-25T11:28:21;6.50;;;1.50;;
64353;SDS011;50681;53.334;-6.536;2023-04-25T11:30:48;10.20;;;1.90;;
64353;SDS011;50681;53.334;-6.536;2023-04-25T11:33:17;9.52;;;1.83;;
64353;SDS011;50681;53.334;-6.536;2023-04-25T11:35:43;8.07;;;2.30;;
64353;SDS011;50681;53.334;-6.536;2023-04-25T11:38:08;6.20;;;1.73;;
64353;SDS011;50681;53.334;-6.536;2023-04-25T11:40:35;8.10;;;1.90;;
64353;SDS011;50681;53.334;-6.536;2023-04-25T11:43:01;8.15;;;2.72;;
64353;SDS011;50681;53.334;-6.536;2023-04-25T11:45:27;8.93;;;2.00;;
64353;SDS011;50681;53.334;-6.536;2023-04-25T11:47:53;10.80;;;2.10;;
64353;SDS011;50681;53.334;-6.536;2023-04-25T11:50:19;8.30;;;2.45;;
64353;SDS011;50681;53.334;-6.536;2023-04-25T11:52:46;11.77;;;4.70;;
64353;SDS011;50681;53.334;-6.536;2023-04-25T11:55:13;8.52;;;1.75;;
64353;SDS011;50681;53.334;-6.536;2023-04-25T11:57:40;7.50;;;1.98;;
64353;SDS011;50681;53.334;-6.536;2023-04-25T12:00:08;5.72;;;1.90;;
64353;SDS011;50681;53.334;-6.536;2023-04-25T12:02:44;6.05;;;2.00;;
64353;SDS011;50681;53.334;-6.536;2023-04-25T12:05:15;10.23;;;3.75;;
64353;SDS011;50681;53.334;-6.536;2023-04-25T12:07:41;9.37;;;1.60;;
64353;SDS011;50681;53.334;-6.536;2023-04-25T12:10:11;5.60;;;1.83;;
64353;SDS011;50681;53.334;-6.536;2023-04-25T12:12:38;6.88;;;1.67;;
64353;SDS011;50681;53.334;-6.536;2023-04-25T12:15:10;6.85;;;1.95;;
64353;SDS011;50681;53.334;-6.536;2023-04-25T12:17:38;4.78;;;1.50;;
64353;SDS011;50681;53.334;-6.536;2023-04-25T12:20:12;5.82;;;1.60;;
64353;SDS011;50681;53.334;-6.536;2023-04-25T12:22:40;7.18;;;2.00;;
64353;SDS011;50681;53.334;-6.536;2023-04-25T12:25:10;6.95;;;1.80;;
64353;SDS011;50681;53.334;-6.536;2023-04-25T12:27:38;7.05;;;1.75;;
64353;SDS011;50681;53.334;-6.536;2023-04-25T12:30:08;7.32;;;2.08;;
64353;SDS011;50681;53.334;-6.536;2023-04-25T12:32:34;6.30;;;1.85;;
64353;SDS011;50681;53.334;-6.536;2023-04-25T12:35:00;8.82;;;1.88;;
64353;SDS011;50681;53.334;-6.536;2023-04-25T12:37:26;8.37;;;1.67;;
64353;SDS011;50681;53.334;-6.536;2023-04-25T12:39:51;6.25;;;1.98;;
64353;SDS011;50681;53.334;-6.536;2023-04-25T12:42:17;7.30;;;2.40;;
64353;SDS011;50681;53.334;-6.536;2023-04-25T12:44:42;8.77;;;2.17;;
64353;SDS011;50681;53.334;-6.536;2023-04-25T12:47:08;8.20;;;2.00;;
64353;SDS011;50681;53.334;-6.536;2023-04-25T12:49:33;6.07;;;2.33;;
64353;SDS011;50681;53.334;-6.536;2023-04-25T12:51:59;8.17;;;2.63;;
64353;SDS011;50681;53.334;-6.536;2023-04-25T12:54:24;6.03;;;1.70;;
64353;SDS011;50681;53.334;-6.536;2023-04-25T12:56:50;7.55;;;1.95;;
64353;SDS011;50681;53.334;-6.536;2023-04-25T12:59:16;5.50;;;1.70;;
64353;SDS011;50681;53.334;-6.536;2023-04-25T13:01:42;9.55;;;2.05;;
64353;SDS011;50681;53.334;-6.536;2023-04-25T13:04:09;9.60;;;2.28;;
64353;SDS011;50681;53.334;-6.536;2023-04-25T13:06:34;9.47;;;1.93;;
64353;SDS011;50681;53.334;-6.536;2023-04-25T13:09:00;6.72;;;2.20;;
64353;SDS011;50681;53.334;-6.536;2023-04-25T13:11:26;6.20;;;1.75;;
64353;SDS011;50681;53.334;-6.536;2023-04-25T13:13:59;9.13;;;2.03;;
64353;SDS011;50681;53.334;-6.536;2023-04-25T13:16:25;6.35;;;1.88;;
64353;SDS011;50681;53.334;-6.536;2023-04-25T13:18:50;8.17;;;2.40;;
64353;SDS011;50681;53.334;-6.536;2023-04-25T13:21:16;6.50;;;2.10;;
64353;SDS011;50681;53.334;-6.536;2023-04-25T13:23:41;5.20;;;1.97;;
64353;SDS011;50681;53.334;-6.536;2023-04-25T13:28:33;10.50;;;2.25;;
64353;SDS011;50681;53.334;-6.536;2023-04-25T13:30:59;7.90;;;2.37;;
64353;SDS011;50681;53.334;-6.536;2023-04-25T13:33:24;12.00;;;2.20;;
64353;SDS011;50681;53.334;-6.536;2023-04-25T13:35:50;10.75;;;2.50;;
64353;SDS011;50681;53.334;-6.536;2023-04-25T13:38:22;7.47;;;2.15;;
64353;SDS011;50681;53.334;-6.536;2023-04-25T13:40:50;9.00;;;2.50;;
64353;SDS011;50681;53.334;-6.536;2023-04-25T13:43:18;11.13;;;2.40;;
64353;SDS011;50681;53.334;-6.536;2023-04-25T13:45:45;12.35;;;2.80;;
64353;SDS011;50681;53.334;-6.536;2023-04-25T13:48:12;11.68;;;2.53;;
64353;SDS011;50681;53.334;-6.536;2023-04-25T13:50:37;12.77;;;2.42;;
64353;SDS011;50681;53.334;-6.536;2023-04-25T13:53:03;13.83;;;2.70;;
64353;SDS011;50681;53.334;-6.536;2023-04-25T13:55:28;10.70;;;2.27;;
64353;SDS011;50681;53.334;-6.536;2023-04-25T13:57:55;9.73;;;2.15;;
64353;SDS011;50681;53.334;-6.536;2023-04-25T14:00:20;9.60;;;2.17;;
64353;SDS011;50681;53.334;-6.536;2023-04-25T14:02:46;12.65;;;3.15;;
64353;SDS011;50681;53.334;-6.536;2023-04-25T14:05:11;9.20;;;2.20;;
64353;SDS011;50681;53.334;-6.536;2023-04-25T14:07:38;7.50;;;1.85;;
64353;SDS011;50681;53.334;-6.536;2023-04-25T14:10:04;11.15;;;2.20;;
64353;SDS011;50681;53.334;-6.536;2023-04-25T14:12:32;7.57;;;2.22;;
64353;SDS011;50681;53.334;-6.536;2023-04-25T14:14:57;7.63;;;2.00;;
64353;SDS011;50681;53.334;-6.536;2023-04-25T14:17:23;5.43;;;1.80;;
64353;SDS011;50681;53.334;-6.536;2023-04-25T14:19:49;17.07;;;2.27;;
64353;SDS011;50681;53.334;-6.536;2023-04-25T14:24:42;12.95;;;3.63;;
64353;SDS011;50681;53.334;-6.536;2023-04-25T14:27:08;10.95;;;2.95;;
64353;SDS011;50681;53.334;-6.536;2023-04-25T14:29:33;9.15;;;3.03;;
64353;SDS011;50681;53.334;-6.536;2023-04-25T14:31:59;18.80;;;3.58;;
64353;SDS011;50681;53.334;-6.536;2023-04-25T14:34:25;22.40;;;3.45;;
64353;SDS011;50681;53.334;-6.536;2023-04-25T14:36:51;14.97;;;3.17;;
64353;SDS011;50681;53.334;-6.536;2023-04-25T14:39:17;9.93;;;2.92;;
64353;SDS011;50681;53.334;-6.536;2023-04-25T14:41:43;18.17;;;3.25;;
64353;SDS011;50681;53.334;-6.536;2023-04-25T14:44:08;9.48;;;2.63;;
64353;SDS011;50681;53.334;-6.536;2023-04-25T14:46:36;6.05;;;2.25;;